Time;durP1;ratioP1;P1;durP2;ratioP2;P2;SDS_P1;SDS_P2;PMS_P1;PMS_P2;Temp;Humidity;BMP_temperature;BMP_pressure;BME280_temperature;BME280_humidity;BME280_pressure;Samples;Min_cycle;Max_cycle;Signal;HPM_P1;HPM_P2
2020/12/28 00:00:57;0.00;0.00;0.62;0.00;0.00;0.62;1.73;1.40;;;18.90;26.40;;;;;;2233226;62;20416;-62
2020/12/28 00:03:42;0.00;0.00;0.62;0.00;0.00;0.62;1.10;0.70;;;18.90;26.40;;;;;;2233866;62;20383;-62
2020/12/28 00:06:27;0.00;0.00;0.62;0.00;0.00;0.62;1.60;0.90;;;18.90;26.90;;;;;;2233834;62;20381;-62
2020/12/28 00:09:12;0.00;0.00;0.62;0.00;0.00;0.62;1.50;0.90;;;18.90;26.40;;;;;;2233531;62;20703;-62
2020/12/28 00:11:58;0.00;0.00;0.62;0.00;0.00;0.62;1.37;1.07;;;18.90;26.40;;;;;;2233529;62;20425;-62
2020/12/28 00:14:43;0.00;0.00;0.62;0.00;0.00;0.62;1.50;0.90;;;18.90;26.40;;;;;;2233986;62;20396;-62
2020/12/28 00:17:28;0.00;0.00;0.62;0.00;0.00;0.62;1.20;0.90;;;18.90;26.40;;;;;;2233685;62;20744;-62
2020/12/28 00:20:13;0.00;0.00;0.62;0.00;0.00;0.62;2.07;0.87;;;18.90;26.40;;;;;;2233428;62;20493;-61
2020/12/28 00:22:58;0.00;0.00;0.62;0.00;0.00;0.62;1.50;1.03;;;18.90;26.40;;;;;;2233748;62;20353;-62
2020/12/28 00:25:43;0.00;0.00;0.62;0.00;0.00;0.62;1.40;0.80;;;18.90;26.40;;;;;;2233791;62;20369;-62
2020/12/28 00:28:28;0.00;0.00;0.62;0.00;0.00;0.62;1.93;1.00;;;18.90;26.40;;;;;;2233665;62;20364;-62
2020/12/28 00:31:13;0.00;0.00;0.62;0.00;0.00;0.62;1.40;1.00;;;18.90;26.40;;;;;;2233579;62;20752;-62
2020/12/28 00:33:58;0.00;0.00;0.62;0.00;0.00;0.62;1.80;1.10;;;18.90;26.40;;;;;;2233523;62;20595;-62
2020/12/28 00:36:43;0.00;0.00;0.62;0.00;0.00;0.62;1.40;1.10;;;18.90;26.40;;;;;;2233890;62;20393;-61
2020/12/28 00:39:28;0.00;0.00;0.62;0.00;0.00;0.62;1.37;1.00;;;18.90;26.40;;;;;;2233580;62;20882;-61
2020/12/28 00:42:13;0.00;0.00;0.62;0.00;0.00;0.62;1.30;0.80;;;18.90;26.40;;;;;;2233544;62;20369;-62
2020/12/28 00:44:58;0.00;0.00;0.62;0.00;0.00;0.62;1.57;0.90;;;18.90;26.40;;;;;;2233577;62;20736;-62
2020/12/28 00:47:42;0.00;0.00;0.62;0.00;0.00;0.62;1.30;1.00;;;18.90;26.40;;;;;;2233387;62;20368;-62
2020/12/28 00:50:27;0.00;0.00;0.62;0.00;0.00;0.62;1.70;1.00;;;18.90;26.40;;;;;;2233317;62;20392;-62
2020/12/28 00:53:12;0.00;0.00;0.62;0.00;0.00;0.62;1.50;1.00;;;18.90;26.40;;;;;;2233879;62;20578;-61
2020/12/28 00:55:58;0.00;0.00;0.62;0.00;0.00;0.62;1.30;0.80;;;18.90;26.40;;;;;;2233332;62;20728;-62
2020/12/28 00:58:43;0.00;0.00;0.62;0.00;0.00;0.62;1.53;0.90;;;18.90;26.50;;;;;;2233599;62;20437;-63
2020/12/28 01:01:28;0.00;0.00;0.62;0.00;0.00;0.62;1.40;0.80;;;18.90;26.60;;;;;;2233962;62;20397;-62
2020/12/28 01:04:14;0.00;0.00;0.62;0.00;0.00;0.62;1.63;0.80;;;18.90;26.60;;;;;;2233155;62;20392;-62
2020/12/28 01:07:13;0.00;0.00;0.62;0.00;0.00;0.62;1.37;0.93;;;18.90;26.60;;;;;;2233668;62;20361;-62
2020/12/28 01:10:13;0.00;0.00;0.62;0.00;0.00;0.62;1.20;0.70;;;18.90;26.60;;;;;;2235994;62;20493;-63
2020/12/28 01:12:59;0.00;0.00;0.62;0.00;0.00;0.62;1.23;0.90;;;18.90;26.60;;;;;;2233780;62;20732;-62
2020/12/28 01:15:44;0.00;0.00;0.62;0.00;0.00;0.62;1.53;1.00;;;18.90;27.10;;;;;;2233966;62;20369;-62
2020/12/28 01:18:34;0.00;0.00;0.62;0.00;0.00;0.62;4.60;1.00;;;18.90;26.60;;;;;;2233347;62;20372;-63
2020/12/28 01:21:24;0.00;0.00;0.62;0.00;0.00;0.62;1.60;0.80;;;18.90;26.60;;;;;;2234282;62;20400;-63
2020/12/28 01:24:09;0.00;0.00;0.62;0.00;0.00;0.62;2.63;0.80;;;18.90;26.60;;;;;;2234288;62;20441;-62
2020/12/28 01:26:55;0.00;0.00;0.62;0.00;0.00;0.62;1.50;0.90;;;18.90;26.60;;;;;;2233808;62;20441;-62
2020/12/28 01:29:40;0.00;0.00;0.62;0.00;0.00;0.62;1.53;0.80;;;18.90;26.50;;;;;;2234469;62;20461;-63
2020/12/28 01:32:25;0.00;0.00;0.62;0.00;0.00;0.62;1.40;0.83;;;18.90;26.50;;;;;;2236722;62;20481;-62
2020/12/28 01:35:39;0.00;0.00;0.62;0.00;0.00;0.62;2.00;1.10;;;18.90;26.50;;;;;;2234223;62;20441;-63
2020/12/28 01:38:26;0.00;0.00;0.62;0.00;0.00;0.62;1.20;0.90;;;18.90;26.50;;;;;;2234134;62;20360;-63
2020/12/28 01:41:11;0.00;0.00;0.62;0.00;0.00;0.62;1.40;0.80;;;18.90;26.50;;;;;;2233649;62;20388;-63
2020/12/28 01:44:02;0.00;0.00;0.62;0.00;0.00;0.62;1.27;0.87;;;18.90;26.50;;;;;;2234559;62;20377;-63
2020/12/28 01:46:48;0.00;0.00;0.62;0.00;0.00;0.62;1.43;0.80;;;18.90;26.40;;;;;;2234288;62;20365;-63
2020/12/28 01:49:34;0.00;0.00;0.62;0.00;0.00;0.62;1.20;0.80;;;18.90;25.80;;;;;;2233822;62;20384;-65
2020/12/28 01:52:20;0.00;0.00;0.62;0.00;0.00;0.62;1.30;0.97;;;18.90;25.70;;;;;;2234177;62;20786;-63
2020/12/28 01:55:06;0.00;0.00;0.62;0.00;0.00;0.62;1.10;0.70;;;18.80;25.60;;;;;;2234106;62;20349;-65
2020/12/28 01:58:05;0.00;0.00;0.62;0.00;0.00;0.62;2.40;0.73;;;18.70;25.60;;;;;;2234072;62;20599;-64
2020/12/28 02:00:50;0.00;0.00;0.62;0.00;0.00;0.62;1.47;1.03;;;18.70;25.70;;;;;;2234162;62;20388;-66
2020/12/28 02:03:36;0.00;0.00;0.62;0.00;0.00;0.62;2.03;1.27;;;18.60;25.60;;;;;;2233860;62;20466;-63
2020/12/28 02:06:32;0.00;0.00;0.62;0.00;0.00;0.62;1.33;1.00;;;18.50;25.50;;;;;;2234193;62;20365;-63
2020/12/28 02:09:17;0.00;0.00;0.62;0.00;0.00;0.62;1.13;0.70;;;18.40;25.50;;;;;;2233858;62;20421;-64
2020/12/28 02:12:01;0.00;0.00;0.62;0.00;0.00;0.62;1.80;0.97;;;18.40;25.50;;;;;;2234462;62;20392;-62
2020/12/28 02:14:51;0.00;0.00;0.62;0.00;0.00;0.62;1.30;0.87;;;18.30;25.40;;;;;;2234132;62;20406;-64
2020/12/28 02:17:52;0.00;0.00;0.62;0.00;0.00;0.62;1.30;0.87;;;18.30;25.40;;;;;;2233736;62;20401;-65
2020/12/28 02:20:50;0.00;0.00;0.62;0.00;0.00;0.62;1.30;0.90;;;18.20;25.90;;;;;;2234055;62;20389;-64
2020/12/28 02:23:36;0.00;0.00;0.62;0.00;0.00;0.62;1.20;0.90;;;18.10;25.30;;;;;;2234515;62;20368;-64
2020/12/28 02:26:21;0.00;0.00;0.62;0.00;0.00;0.62;1.50;0.90;;;18.10;25.30;;;;;;2233781;62;20381;-65
2020/12/28 02:29:06;0.00;0.00;0.62;0.00;0.00;0.62;1.30;0.80;;;18.00;25.20;;;;;;2233914;62;20365;-65
2020/12/28 02:31:51;0.00;0.00;0.62;0.00;0.00;0.62;2.23;0.77;;;17.90;25.30;;;;;;2234401;62;20392;-65
2020/12/28 02:35:00;0.00;0.00;0.62;0.00;0.00;0.62;1.50;0.90;;;17.90;25.40;;;;;;2234120;62;20364;-66
2020/12/28 02:37:56;0.00;0.00;0.62;0.00;0.00;0.62;1.20;0.80;;;17.80;25.40;;;;;;2233923;62;20406;-66
2020/12/28 02:40:42;0.00;0.00;0.62;0.00;0.00;0.62;1.20;0.90;;;17.80;25.50;;;;;;2233716;62;21101;-67
2020/12/28 02:43:26;0.00;0.00;0.62;0.00;0.00;0.62;1.20;0.90;;;17.70;25.40;;;;;;2236810;62;20361;-66
2020/12/28 02:46:30;0.00;0.00;0.62;0.00;0.00;0.62;1.33;0.80;;;17.70;25.60;;;;;;2234350;62;20728;-63
2020/12/28 02:49:33;0.00;0.00;0.62;0.00;0.00;0.62;1.20;0.80;;;17.60;25.70;;;;;;2234349;62;20756;-65
2020/12/28 02:52:37;0.00;0.00;0.62;0.00;0.00;0.62;1.30;0.70;;;17.60;25.80;;;;;;2234379;62;20728;-66
2020/12/28 02:55:41;0.00;0.00;0.62;0.00;0.00;0.62;1.30;0.70;;;17.50;25.70;;;;;;2234121;62;20752;-66
2020/12/28 02:58:45;0.00;0.00;0.62;0.00;0.00;0.62;1.13;0.63;;;17.50;25.80;;;;;;2234303;62;20368;-65
2020/12/28 03:01:49;0.00;0.00;0.62;0.00;0.00;0.62;1.33;0.70;;;17.40;25.90;;;;;;2234153;62;20368;-66
2020/12/28 03:04:52;0.00;0.00;0.62;0.00;0.00;0.62;1.20;0.70;;;17.40;25.90;;;;;;2234376;62;20364;-65
2020/12/28 03:07:56;0.00;0.00;0.62;0.00;0.00;0.62;1.20;0.80;;;17.40;25.90;;;;;;2234301;62;20355;-65
2020/12/28 03:11:00;0.00;0.00;0.62;0.00;0.00;0.62;1.20;0.80;;;17.40;25.90;;;;;;2234143;62;20417;-66
2020/12/28 03:14:05;0.00;0.00;0.62;0.00;0.00;0.62;1.30;0.70;;;17.40;26.00;;;;;;2234342;62;20364;-66
2020/12/28 03:17:08;0.00;0.00;0.62;0.00;0.00;0.62;1.20;0.70;;;17.30;25.90;;;;;;2233919;62;20372;-66
2020/12/28 03:20:25;0.00;0.00;0.62;0.00;0.00;0.62;1.40;0.70;;;17.30;25.90;;;;;;2233917;62;20727;-63
2020/12/28 03:23:29;0.00;0.00;0.62;0.00;0.00;0.62;1.10;0.70;;;17.30;26.00;;;;;;2234302;62;20560;-66
2020/12/28 03:26:34;0.00;0.00;0.62;0.00;0.00;0.62;1.30;0.67;;;17.20;25.90;;;;;;2234303;62;20360;-65
2020/12/28 03:29:37;0.00;0.00;0.62;0.00;0.00;0.62;1.20;0.70;;;17.20;26.00;;;;;;2234135;62;20405;-64
2020/12/28 03:32:41;0.00;0.00;0.62;0.00;0.00;0.62;1.33;0.70;;;17.20;26.00;;;;;;2234141;62;20570;-66
2020/12/28 03:35:44;0.00;0.00;0.62;0.00;0.00;0.62;2.00;1.27;;;17.20;26.10;;;;;;2234323;62;20489;-64
2020/12/28 03:38:48;0.00;0.00;0.62;0.00;0.00;0.62;1.20;0.70;;;17.20;26.20;;;;;;2234023;62;20361;-65
2020/12/28 03:41:53;0.00;0.00;0.62;0.00;0.00;0.62;1.10;0.60;;;17.20;26.20;;;;;;2234095;62;20461;-66
2020/12/28 03:44:57;0.00;0.00;0.62;0.00;0.00;0.62;1.20;0.60;;;17.10;26.10;;;;;;2234272;62;20401;-65
2020/12/28 03:48:00;0.00;0.00;0.62;0.00;0.00;0.62;1.20;0.67;;;17.10;26.10;;;;;;2233967;62;20361;-65
2020/12/28 03:51:04;0.00;0.00;0.62;0.00;0.00;0.62;1.20;0.70;;;17.10;26.20;;;;;;2234176;62;20391;-66
2020/12/28 03:54:07;0.00;0.00;0.62;0.00;0.00;0.62;1.60;0.70;;;17.10;26.20;;;;;;2233934;62;20360;-66
2020/12/28 03:57:12;0.00;0.00;0.62;0.00;0.00;0.62;2.30;0.90;;;17.10;26.20;;;;;;2234184;62;20626;-65
2020/12/28 04:00:15;0.00;0.00;0.62;0.00;0.00;0.62;1.20;0.70;;;17.10;26.20;;;;;;2234011;62;20408;-64
2020/12/28 04:03:20;0.00;0.00;0.62;0.00;0.00;0.62;1.20;0.70;;;17.10;26.20;;;;;;2234040;62;20418;-65
2020/12/28 04:06:23;0.00;0.00;0.62;0.00;0.00;0.62;1.20;0.70;;;17.00;26.20;;;;;;2234258;62;20716;-65
2020/12/28 04:09:27;0.00;0.00;0.62;0.00;0.00;0.62;1.10;0.60;;;17.00;26.20;;;;;;2233721;62;20408;-65
2020/12/28 04:12:42;0.00;0.00;0.62;0.00;0.00;0.62;1.23;0.70;;;17.00;26.20;;;;;;2234064;62;20747;-66
2020/12/28 04:15:27;0.00;0.00;0.62;0.00;0.00;0.62;1.10;0.60;;;17.00;26.30;;;;;;2233991;62;20757;-66
2020/12/28 04:18:12;0.00;0.00;0.62;0.00;0.00;0.62;1.20;0.70;;;17.00;26.30;;;;;;2233928;62;20365;-67
2020/12/28 04:20:56;0.00;0.00;0.62;0.00;0.00;0.62;1.20;0.70;;;17.00;26.30;;;;;;2234122;62;20812;-65
2020/12/28 04:23:41;0.00;0.00;0.62;0.00;0.00;0.62;1.20;0.70;;;17.00;26.30;;;;;;2233788;62;20725;-66
2020/12/28 04:26:25;0.00;0.00;0.62;0.00;0.00;0.62;1.10;0.60;;;16.90;26.80;;;;;;2234260;62;20429;-64
2020/12/28 04:29:12;0.00;0.00;0.62;0.00;0.00;0.62;1.30;0.80;;;16.90;26.30;;;;;;2234011;62;20380;-65
2020/12/28 04:31:56;0.00;0.00;0.62;0.00;0.00;0.62;1.10;0.70;;;16.90;26.80;;;;;;2233863;62;20745;-65
2020/12/28 04:34:41;0.00;0.00;0.62;0.00;0.00;0.62;1.53;0.70;;;16.90;26.30;;;;;;2234176;62;20386;-66
2020/12/28 04:37:26;0.00;0.00;0.62;0.00;0.00;0.62;1.30;0.80;;;16.90;26.30;;;;;;2233906;62;20372;-65
2020/12/28 04:40:11;0.00;0.00;0.62;0.00;0.00;0.62;1.13;0.60;;;16.90;26.30;;;;;;2233907;62;20807;-66
2020/12/28 04:42:56;0.00;0.00;0.62;0.00;0.00;0.62;1.73;1.00;;;16.90;26.40;;;;;;2234190;62;20734;-65
2020/12/28 04:45:43;0.00;0.00;0.62;0.00;0.00;0.62;1.40;0.80;;;16.80;26.30;;;;;;2233806;62;20365;-63
2020/12/28 04:48:29;0.00;0.00;0.62;0.00;0.00;0.62;1.10;0.60;;;16.90;26.40;;;;;;2233619;62;20373;-65
2020/12/28 04:51:14;0.00;0.00;0.62;0.00;0.00;0.62;1.30;0.60;;;16.80;26.30;;;;;;2234078;62;20392;-65
2020/12/28 04:53:59;0.00;0.00;0.62;0.00;0.00;0.62;1.20;0.70;;;16.80;26.40;;;;;;2234168;62;20632;-66
2020/12/28 04:56:43;0.00;0.00;0.62;0.00;0.00;0.62;1.10;0.63;;;16.80;26.40;;;;;;2234980;62;20364;-63
2020/12/28 04:59:28;0.00;0.00;0.62;0.00;0.00;0.62;1.40;0.70;;;16.80;26.40;;;;;;2234507;62;20445;-65
2020/12/28 05:02:14;0.00;0.00;0.62;0.00;0.00;0.62;1.23;0.80;;;16.80;26.40;;;;;;2234565;62;20363;-66
2020/12/28 05:05:05;0.00;0.00;0.62;0.00;0.00;0.62;1.20;0.80;;;16.80;26.50;;;;;;2234807;62;20372;-65
2020/12/28 05:07:51;0.00;0.00;0.62;0.00;0.00;0.62;1.23;0.70;;;16.80;26.50;;;;;;2234446;62;20357;-64
2020/12/28 05:10:36;0.00;0.00;0.62;0.00;0.00;0.62;1.13;0.70;;;16.80;26.50;;;;;;2234646;62;20388;-66
2020/12/28 05:13:20;0.00;0.00;0.62;0.00;0.00;0.62;1.20;0.80;;;16.80;26.50;;;;;;2234693;62;20575;-64
2020/12/28 05:16:05;0.00;0.00;0.62;0.00;0.00;0.62;1.20;0.67;;;16.70;26.50;;;;;;2234400;62;20392;-66
2020/12/28 05:18:54;0.00;0.00;0.62;0.00;0.00;0.62;1.43;0.90;;;16.80;26.50;;;;;;2234667;62;20361;-64
2020/12/28 05:21:40;0.00;0.00;0.62;0.00;0.00;0.62;1.20;0.77;;;16.80;26.50;;;;;;2234523;62;20881;-64
2020/12/28 05:24:25;0.00;0.00;0.62;0.00;0.00;0.62;1.20;0.80;;;16.80;26.50;;;;;;2234576;62;20353;-65
2020/12/28 05:27:16;0.00;0.00;0.62;0.00;0.00;0.62;1.47;0.70;;;16.80;26.50;;;;;;2234721;62;20364;-66
2020/12/28 05:30:02;0.00;0.00;0.62;0.00;0.00;0.62;1.40;0.80;;;16.80;26.50;;;;;;2234244;62;20384;-63
2020/12/28 05:32:47;0.00;0.00;0.62;0.00;0.00;0.62;1.30;0.80;;;16.80;26.50;;;;;;2234737;62;20361;-63
2020/12/28 05:35:32;0.00;0.00;0.62;0.00;0.00;0.62;1.20;0.80;;;16.80;26.50;;;;;;2234672;62;20361;-64
2020/12/28 05:38:18;0.00;0.00;0.62;0.00;0.00;0.62;1.30;0.80;;;16.80;26.70;;;;;;2236639;62;20729;-64
2020/12/28 05:41:05;0.00;0.00;0.62;0.00;0.00;0.62;1.20;0.80;;;16.80;26.60;;;;;;2234622;62;20393;-64
2020/12/28 05:43:49;0.00;0.00;0.62;0.00;0.00;0.62;1.23;0.80;;;16.80;26.60;;;;;;2234570;62;20686;-65
2020/12/28 05:46:35;0.00;0.00;0.62;0.00;0.00;0.62;1.20;0.70;;;16.80;26.50;;;;;;2234594;62;20414;-65
2020/12/28 05:49:20;0.00;0.00;0.62;0.00;0.00;0.62;1.20;0.80;;;16.80;26.60;;;;;;2234422;62;20457;-64
2020/12/28 05:52:08;0.00;0.00;0.62;0.00;0.00;0.62;1.27;0.80;;;16.80;26.60;;;;;;2234274;62;20398;-64
2020/12/28 05:54:59;0.00;0.00;0.62;0.00;0.00;0.62;1.47;0.80;;;16.80;26.60;;;;;;2234623;62;20429;-64
2020/12/28 05:57:45;0.00;0.00;0.62;0.00;0.00;0.62;1.30;0.87;;;16.80;26.60;;;;;;2234603;62;20365;-66
2020/12/28 06:00:33;0.00;0.00;0.62;0.00;0.00;0.62;1.30;0.90;;;16.80;26.60;;;;;;2234240;62;20461;-64
2020/12/28 06:03:25;0.00;0.00;0.62;0.00;0.00;0.62;1.20;0.63;;;16.80;27.20;;;;;;2234557;62;20369;-66
2020/12/28 06:06:09;0.00;0.00;0.62;0.00;0.00;0.62;1.50;1.00;;;16.80;26.70;;;;;;2234413;62;20675;-66
2020/12/28 06:08:55;0.00;0.00;0.62;0.00;0.00;0.62;1.40;0.80;;;16.80;26.70;;;;;;2234359;62;20538;-64
2020/12/28 06:11:40;0.00;0.00;0.62;0.00;0.00;0.62;1.20;0.80;;;16.80;26.80;;;;;;2234191;62;20361;-66
2020/12/28 06:14:32;0.00;0.00;0.62;0.00;0.00;0.62;1.53;0.80;;;16.80;26.80;;;;;;2234093;62;20353;-67
2020/12/28 06:17:17;0.00;0.00;0.62;0.00;0.00;0.62;1.40;0.90;;;16.70;26.80;;;;;;2234512;62;20410;-66
2020/12/28 06:20:05;0.00;0.00;0.62;0.00;0.00;0.62;1.40;0.90;;;16.80;26.90;;;;;;2234418;62;20491;-66
2020/12/28 06:22:51;0.00;0.00;0.62;0.00;0.00;0.62;1.10;0.70;;;16.70;26.80;;;;;;2234326;62;20357;-66
2020/12/28 06:25:38;0.00;0.00;0.62;0.00;0.00;0.62;1.50;0.80;;;16.80;26.90;;;;;;2234544;62;20392;-64
2020/12/28 06:28:25;0.00;0.00;0.62;0.00;0.00;0.62;1.37;0.90;;;16.80;26.90;;;;;;2234266;62;20361;-65
2020/12/28 06:31:09;0.00;0.00;0.62;0.00;0.00;0.62;1.20;0.97;;;16.70;26.80;;;;;;2233954;62;20380;-64
2020/12/28 06:33:54;0.00;0.00;0.62;0.00;0.00;0.62;1.10;0.70;;;16.70;26.80;;;;;;2234462;62;20574;-63
2020/12/28 06:36:38;0.00;0.00;0.62;0.00;0.00;0.62;1.40;0.80;;;16.80;26.90;;;;;;2234174;62;20370;-65
2020/12/28 06:39:23;0.00;0.00;0.62;0.00;0.00;0.62;1.50;0.90;;;16.70;26.80;;;;;;2234342;62;20833;-63
2020/12/28 06:42:11;0.00;0.00;0.62;0.00;0.00;0.62;1.20;0.70;;;16.70;27.30;;;;;;2234414;62;20729;-62
2020/12/28 06:44:56;0.00;0.00;0.62;0.00;0.00;0.62;1.50;1.00;;;16.70;27.40;;;;;;2234091;62;20585;-63
2020/12/28 06:47:41;0.00;0.00;0.62;0.00;0.00;0.62;1.80;0.97;;;16.70;26.90;;;;;;2233119;62;20409;-62
2020/12/28 06:50:25;0.00;0.00;0.62;0.00;0.00;0.62;1.40;1.00;;;16.70;26.90;;;;;;2233550;62;20789;-62
2020/12/28 06:53:10;0.00;0.00;0.62;0.00;0.00;0.62;1.53;1.03;;;16.70;26.90;;;;;;2233642;62;20374;-63
2020/12/28 06:56:06;0.00;0.00;0.62;0.00;0.00;0.62;3.33;1.03;;;16.70;26.90;;;;;;2234275;62;20360;-61
2020/12/28 06:58:58;0.00;0.00;0.62;0.00;0.00;0.62;2.30;1.10;;;16.70;26.90;;;;;;2233888;62;20393;-61
2020/12/28 07:01:48;0.00;0.00;0.62;0.00;0.00;0.62;1.20;0.80;;;16.70;27.00;;;;;;2234309;62;20780;-61
2020/12/28 07:04:35;0.00;0.00;0.62;0.00;0.00;0.62;1.50;0.97;;;16.70;27.00;;;;;;2234297;62;20361;-62
2020/12/28 07:07:19;0.00;0.00;0.62;0.00;0.00;0.62;1.37;0.93;;;16.70;27.00;;;;;;2233919;62;20459;-62
2020/12/28 07:10:07;0.00;0.00;0.62;0.00;0.00;0.62;2.27;1.33;;;16.70;27.00;;;;;;2234201;62;20418;-63
2020/12/28 07:12:52;0.00;0.00;0.62;0.00;0.00;0.62;1.40;1.00;;;16.60;27.00;;;;;;2234174;62;20737;-61
2020/12/28 07:15:37;0.00;0.00;0.62;0.00;0.00;0.62;1.93;1.03;;;16.70;27.10;;;;;;2233780;62;20404;-62
2020/12/28 07:18:22;0.00;0.00;0.62;0.00;0.00;0.62;1.70;1.20;;;16.70;27.10;;;;;;2234113;62;20373;-61
2020/12/28 07:21:07;0.00;0.00;0.62;0.00;0.00;0.62;1.87;0.90;;;16.70;27.10;;;;;;2233782;62;20392;-62
2020/12/28 07:23:52;0.00;0.00;0.62;0.00;0.00;0.62;1.40;0.90;;;16.70;27.10;;;;;;2234268;62;20426;-61
2020/12/28 07:26:37;0.00;0.00;0.62;0.00;0.00;0.62;1.60;1.03;;;16.70;27.10;;;;;;2234203;62;20397;-62
2020/12/28 07:29:22;0.00;0.00;0.62;0.00;0.00;0.62;2.20;1.13;;;16.70;27.10;;;;;;2233695;62;20377;-62
2020/12/28 07:32:09;0.00;0.00;0.62;0.00;0.00;0.62;1.30;1.00;;;16.70;27.10;;;;;;2234281;62;20388;-61
2020/12/28 07:34:54;0.00;0.00;0.62;0.00;0.00;0.62;1.60;1.00;;;16.70;27.10;;;;;;2234016;62;20377;-60
2020/12/28 07:37:40;0.00;0.00;0.62;0.00;0.00;0.62;1.43;1.17;;;16.70;27.10;;;;;;2234060;62;20995;-61
2020/12/28 07:40:25;0.00;0.00;0.62;0.00;0.00;0.62;1.83;1.03;;;16.70;27.10;;;;;;2234119;62;20425;-62
2020/12/28 07:43:10;0.00;0.00;0.62;0.00;0.00;0.62;2.03;1.10;;;16.70;27.10;;;;;;2233689;62;20558;-61
2020/12/28 07:46:05;0.00;0.00;0.62;0.00;0.00;0.62;3.50;1.20;;;16.80;27.20;;;;;;2234131;62;20365;-61
2020/12/28 07:48:55;0.00;0.00;0.62;0.00;0.00;0.62;2.13;0.90;;;16.80;27.20;;;;;;2234037;62;20410;-62
2020/12/28 07:51:40;0.00;0.00;0.62;0.00;0.00;0.62;1.50;1.10;;;16.80;27.10;;;;;;2233779;62;20490;-63
2020/12/28 07:54:37;0.00;0.00;0.62;0.00;0.00;0.62;1.90;1.20;;;16.80;27.10;;;;;;2234136;62;20365;-62
2020/12/28 07:57:31;0.00;0.00;0.62;0.00;0.00;0.62;1.37;0.90;;;16.80;27.10;;;;;;2233965;62;20381;-62
2020/12/28 08:00:17;0.00;0.00;0.62;0.00;0.00;0.62;1.40;0.90;;;16.80;27.10;;;;;;2233874;62;20393;-60
2020/12/28 08:03:17;0.00;0.00;0.62;0.00;0.00;0.62;1.53;1.00;;;16.90;27.10;;;;;;2234208;62;20890;-61
2020/12/28 08:06:06;0.00;0.00;0.62;0.00;0.00;0.62;1.40;0.90;;;16.90;27.10;;;;;;2230746;62;20646;-61
2020/12/28 08:08:59;0.00;0.00;0.62;0.00;0.00;0.62;1.63;0.97;;;16.90;27.10;;;;;;2233955;62;20373;-62
2020/12/28 08:11:44;0.00;0.00;0.62;0.00;0.00;0.62;1.53;0.97;;;16.90;27.60;;;;;;2234135;62;20357;-61
2020/12/28 08:14:29;0.00;0.00;0.62;0.00;0.00;0.62;2.67;0.93;;;17.00;27.10;;;;;;2233840;62;20367;-62
2020/12/28 08:17:14;0.00;0.00;0.62;0.00;0.00;0.62;1.80;0.97;;;17.00;27.10;;;;;;2234082;62;21041;-63
2020/12/28 08:20:07;0.00;0.00;0.62;0.00;0.00;0.62;1.43;0.90;;;17.00;27.10;;;;;;2233744;62;20757;-61
2020/12/28 08:22:53;0.00;0.00;0.62;0.00;0.00;0.62;2.07;1.10;;;17.10;27.10;;;;;;2234110;62;20440;-62
2020/12/28 08:25:41;0.00;0.00;0.62;0.00;0.00;0.62;1.20;0.80;;;17.00;27.00;;;;;;2234137;62;20364;-61
2020/12/28 08:28:25;0.00;0.00;0.62;0.00;0.00;0.62;1.50;1.10;;;17.10;27.10;;;;;;2234106;62;20369;-61
2020/12/28 08:31:10;0.00;0.00;0.62;0.00;0.00;0.62;1.60;0.90;;;17.10;27.10;;;;;;2234778;62;20384;-61
2020/12/28 08:34:00;0.00;0.00;0.62;0.00;0.00;0.62;1.40;1.00;;;17.10;27.00;;;;;;2234693;62;20413;-61
2020/12/28 08:36:52;0.00;0.00;0.62;0.00;0.00;0.62;1.40;0.90;;;17.20;27.10;;;;;;2234468;62;20401;-62
2020/12/28 08:39:38;0.00;0.00;0.62;0.00;0.00;0.62;1.47;1.00;;;17.20;27.10;;;;;;2234638;62;20384;-60
2020/12/28 08:42:28;0.00;0.00;0.62;0.00;0.00;0.62;1.60;0.80;;;17.20;27.00;;;;;;2234337;62;20365;-60
2020/12/28 08:45:19;0.00;0.00;0.62;0.00;0.00;0.62;1.83;1.00;;;17.20;27.60;;;;;;2234761;62;20380;-60
2020/12/28 08:48:04;0.00;0.00;0.62;0.00;0.00;0.62;2.33;0.80;;;17.20;27.10;;;;;;2234266;62;20518;-61
2020/12/28 08:50:48;0.00;0.00;0.62;0.00;0.00;0.62;1.30;0.90;;;17.30;27.10;;;;;;2234140;62;20416;-61
2020/12/28 08:53:33;0.00;0.00;0.62;0.00;0.00;0.62;1.50;0.70;;;17.30;27.20;;;;;;2234716;62;20367;-61
2020/12/28 08:56:19;0.00;0.00;0.62;0.00;0.00;0.62;1.50;0.80;;;17.30;27.20;;;;;;2234490;62;20353;-61
2020/12/28 08:59:04;0.00;0.00;0.62;0.00;0.00;0.62;1.57;0.77;;;17.30;27.20;;;;;;2234372;62;20392;-61
2020/12/28 09:01:52;0.00;0.00;0.62;0.00;0.00;0.62;1.40;0.90;;;17.40;27.20;;;;;;2234240;62;20825;-61
2020/12/28 09:04:36;0.00;0.00;0.62;0.00;0.00;0.62;1.37;0.90;;;17.40;27.30;;;;;;2234407;62;20394;-61
2020/12/28 09:07:23;0.00;0.00;0.62;0.00;0.00;0.62;1.67;1.00;;;17.50;27.30;;;;;;2234736;62;20412;-60
2020/12/28 09:10:08;0.00;0.00;0.62;0.00;0.00;0.62;2.00;1.00;;;17.50;27.30;;;;;;2234515;62;20436;-60
2020/12/28 09:12:54;0.00;0.00;0.62;0.00;0.00;0.62;1.30;0.80;;;17.50;27.30;;;;;;2234208;62;20360;-60
2020/12/28 09:15:38;0.00;0.00;0.62;0.00;0.00;0.62;1.20;0.70;;;17.50;27.20;;;;;;2234582;62;20405;-60
2020/12/28 09:18:23;0.00;0.00;0.62;0.00;0.00;0.62;1.30;0.80;;;17.60;27.30;;;;;;2234386;62;20373;-60
2020/12/28 09:21:09;0.00;0.00;0.62;0.00;0.00;0.62;1.40;0.70;;;17.60;27.20;;;;;;2234400;62;20453;-60
2020/12/28 09:23:53;0.00;0.00;0.62;0.00;0.00;0.62;1.20;0.77;;;17.60;27.20;;;;;;2234576;62;20572;-57
2020/12/28 09:26:38;0.00;0.00;0.62;0.00;0.00;0.62;1.57;0.80;;;17.60;27.20;;;;;;2234381;62;20360;-62
2020/12/28 09:29:24;0.00;0.00;0.62;0.00;0.00;0.62;1.20;0.70;;;17.70;27.30;;;;;;2234457;62;20384;-62
2020/12/28 09:32:08;0.00;0.00;0.62;0.00;0.00;0.62;1.43;0.70;;;17.70;27.30;;;;;;2234563;62;20389;-61
2020/12/28 09:34:53;0.00;0.00;0.62;0.00;0.00;0.62;1.53;0.73;;;17.70;27.30;;;;;;2234167;62;20376;-64
2020/12/28 09:37:37;0.00;0.00;0.62;0.00;0.00;0.62;1.90;0.80;;;17.80;27.40;;;;;;2234551;62;20372;-60
2020/12/28 09:40:22;0.00;0.00;0.62;0.00;0.00;0.62;2.10;1.67;;;17.80;27.30;;;;;;2234358;62;20392;-64
2020/12/28 09:43:06;0.00;0.00;0.62;0.00;0.00;0.62;1.30;0.70;;;17.80;27.30;;;;;;2234285;62;20393;-63
2020/12/28 09:45:53;0.00;0.00;0.62;0.00;0.00;0.62;1.53;0.80;;;17.80;27.40;;;;;;2234763;62;20777;-63
2020/12/28 09:48:38;0.00;0.00;0.62;0.00;0.00;0.62;1.40;0.80;;;17.90;27.40;;;;;;2234174;62;20372;-62
2020/12/28 09:51:22;0.00;0.00;0.62;0.00;0.00;0.62;1.50;0.80;;;17.90;27.40;;;;;;2234415;62;20424;-62
2020/12/28 09:54:07;0.00;0.00;0.62;0.00;0.00;0.62;1.60;0.83;;;17.90;27.50;;;;;;2234459;62;20372;-62
2020/12/28 09:56:51;0.00;0.00;0.62;0.00;0.00;0.62;1.17;0.70;;;18.00;27.50;;;;;;2234138;62;20409;-64
2020/12/28 09:59:38;0.00;0.00;0.62;0.00;0.00;0.62;1.33;0.70;;;18.00;27.50;;;;;;2234343;62;20437;-63
2020/12/28 10:02:23;0.00;0.00;0.62;0.00;0.00;0.62;1.37;0.70;;;18.10;27.60;;;;;;2234488;62;20437;-65
2020/12/28 10:05:09;0.00;0.00;0.62;0.00;0.00;0.62;1.40;0.70;;;18.10;27.60;;;;;;2234147;62;20369;-63
2020/12/28 10:07:53;0.00;0.00;0.62;0.00;0.00;0.62;1.70;0.73;;;18.20;27.60;;;;;;2236767;62;20364;-62
2020/12/28 10:10:38;0.00;0.00;0.62;0.00;0.00;0.62;1.20;0.70;;;18.20;27.50;;;;;;2234262;62;20753;-61
2020/12/28 10:13:22;0.00;0.00;0.62;0.00;0.00;0.62;1.13;0.63;;;18.20;27.50;;;;;;2234315;62;20365;-61
2020/12/28 10:16:07;0.00;0.00;0.62;0.00;0.00;0.62;1.20;0.70;;;18.30;27.50;;;;;;2234434;62;20369;-61
2020/12/28 10:18:53;0.00;0.00;0.62;0.00;0.00;0.62;1.40;0.90;;;18.30;27.50;;;;;;2234042;62;20361;-60
2020/12/28 10:21:37;0.00;0.00;0.62;0.00;0.00;0.62;1.73;0.83;;;18.40;27.50;;;;;;2234423;62;20397;-60
2020/12/28 10:24:22;0.00;0.00;0.62;0.00;0.00;0.62;1.50;0.80;;;18.40;27.50;;;;;;2234596;62;20438;-62
2020/12/28 10:27:07;0.00;0.00;0.62;0.00;0.00;0.62;1.50;0.67;;;18.40;27.50;;;;;;2234070;62;20364;-61
2020/12/28 10:29:51;0.00;0.00;0.62;0.00;0.00;0.62;1.20;0.83;;;18.40;27.40;;;;;;2234320;62;20418;-60
2020/12/28 10:32:36;0.00;0.00;0.62;0.00;0.00;0.62;1.40;1.00;;;18.50;27.40;;;;;;2234215;62;20413;-64
2020/12/28 10:35:22;0.00;0.00;0.62;0.00;0.00;0.62;1.10;0.60;;;18.50;27.50;;;;;;2234355;62;20438;-65
2020/12/28 10:38:08;0.00;0.00;0.62;0.00;0.00;0.62;1.23;0.80;;;18.50;27.60;;;;;;2234308;62;20405;-65
2020/12/28 10:40:52;0.00;0.00;0.62;0.00;0.00;0.62;1.50;1.00;;;18.50;27.70;;;;;;2233798;62;20408;-63
2020/12/28 10:43:37;0.00;0.00;0.62;0.00;0.00;0.62;2.03;1.17;;;18.50;27.70;;;;;;2234354;62;20432;-62
2020/12/28 10:46:22;0.00;0.00;0.62;0.00;0.00;0.62;1.70;1.10;;;18.60;27.80;;;;;;2234444;62;20360;-61
2020/12/28 10:49:08;0.00;0.00;0.62;0.00;0.00;0.62;2.10;1.43;;;18.60;27.90;;;;;;2233661;62;20457;-63
2020/12/28 10:51:53;0.00;0.00;0.62;0.00;0.00;0.62;1.77;1.10;;;18.60;28.00;;;;;;2234120;62;20874;-65
2020/12/28 10:54:38;0.00;0.00;0.62;0.00;0.00;0.62;1.70;1.10;;;18.60;28.00;;;;;;2234203;62;20375;-63
2020/12/28 10:57:23;0.00;0.00;0.62;0.00;0.00;0.62;1.40;1.10;;;18.70;28.20;;;;;;2233583;62;20364;-66
2020/12/28 11:00:07;0.00;0.00;0.62;0.00;0.00;0.62;1.70;0.90;;;18.70;28.20;;;;;;2234187;62;20418;-64
2020/12/28 11:02:52;0.00;0.00;0.62;0.00;0.00;0.62;1.20;1.00;;;18.70;28.20;;;;;;2234102;62;20583;-63
2020/12/28 11:05:36;0.00;0.00;0.62;0.00;0.00;0.62;1.40;1.10;;;18.80;28.30;;;;;;2234319;62;20369;-66